Time;durP1;ratioP1;P1;durP2;ratioP2;P2;SDS_P1;SDS_P2;PMS_P1;PMS_P2;Temp;Humidity;BMP_temperature;BMP_pressure;BME280_temperature;BME280_humidity;BME280_pressure;Samples;Min_cycle;Max_cycle;Signal;HPM_P1;HPM_P2
2022/08/01 00:00:20;;;;;;;8.75;4.00;;;18.30;99.90;;;;;;5075955;28;20054;-69
2022/08/01 00:02:45;;;;;;;6.60;3.70;;;18.30;99.90;;;;;;5075861;28;20062;-69
2022/08/01 00:05:11;;;;;;;17.35;4.18;;;18.30;99.90;;;;;;5075932;28;20049;-69
2022/08/01 00:07:36;;;;;;;11.57;4.13;;;18.30;99.90;;;;;;5075870;28;20480;-69
2022/08/01 00:10:04;;;;;;;8.10;3.90;;;18.20;99.90;;;;;;5075544;28;20109;-69
2022/08/01 00:12:30;;;;;;;7.93;4.32;;;18.30;99.90;;;;;;5081020;28;20451;-68
2022/08/01 00:14:55;;;;;;;7.20;4.00;;;18.30;99.90;;;;;;5096106;28;20127;-69
2022/08/01 00:17:21;;;;;;;9.40;4.70;;;18.30;99.90;;;;;;5094819;28;20179;-69
2022/08/01 00:19:46;;;;;;;7.32;4.13;;;18.30;99.90;;;;;;5095026;28;20047;-69
2022/08/01 00:22:12;;;;;;;11.70;4.07;;;18.20;99.90;;;;;;5095701;28;20357;-69
2022/08/01 00:24:37;;;;;;;9.00;4.85;;;18.20;99.90;;;;;;5095644;28;20040;-69
2022/08/01 00:27:03;;;;;;;7.65;3.97;;;18.20;99.90;;;;;;5090556;28;20050;-69
2022/08/01 00:29:29;;;;;;;8.80;4.40;;;18.20;99.90;;;;;;5075707;28;20342;-69
2022/08/01 00:31:54;;;;;;;7.85;3.63;;;18.20;99.90;;;;;;5075262;28;20056;-69
2022/08/01 00:34:20;;;;;;;11.63;4.25;;;18.20;99.90;;;;;;5075244;28;20353;-69
2022/08/01 00:36:46;;;;;;;6.78;3.58;;;18.20;99.90;;;;;;5075502;28;20048;-69
2022/08/01 00:39:12;;;;;;;6.15;3.33;;;18.20;99.90;;;;;;5075974;28;20044;-69
2022/08/01 00:41:38;;;;;;;6.75;3.90;;;18.20;99.90;;;;;;5077560;28;20039;-69
2022/08/01 00:44:06;;;;;;;5.47;3.13;;;18.20;99.90;;;;;;5095660;28;20123;-69
2022/08/01 00:46:33;;;;;;;6.03;3.10;;;18.20;99.90;;;;;;5095449;28;20075;-69
2022/08/01 00:48:59;;;;;;;5.45;2.85;;;18.20;99.90;;;;;;5095307;28;20052;-69
2022/08/01 00:51:26;;;;;;;4.72;2.67;;;18.20;99.90;;;;;;5095501;28;20048;-69
2022/08/01 00:53:52;;;;;;;9.88;2.40;;;18.20;99.90;;;;;;5095152;28;20127;-69
2022/08/01 00:56:23;;;;;;;4.03;2.20;;;18.20;99.90;;;;;;5092334;28;20063;-68
2022/08/01 00:58:49;;;;;;;5.20;2.40;;;18.20;99.90;;;;;;5074848;28;20131;-69
2022/08/01 01:01:14;;;;;;;3.63;1.80;;;18.20;99.90;;;;;;5074701;28;20091;-69
2022/08/01 01:03:40;;;;;;;4.68;2.30;;;18.20;99.90;;;;;;5075302;28;20082;-69
2022/08/01 01:06:13;;;;;;;3.88;2.08;;;18.20;99.90;;;;;;5075184;28;20084;-69
2022/08/01 01:08:47;;;;;;;3.88;1.95;;;18.20;99.90;;;;;;5075039;28;20080;-69
2022/08/01 01:11:31;;;;;;;3.40;1.98;;;18.20;99.90;;;;;;5077952;28;20055;-69
2022/08/01 01:14:13;;;;;;;3.15;2.03;;;18.20;99.90;;;;;;5095198;28;20349;-69
2022/08/01 01:16:42;;;;;;;6.93;2.08;;;18.20;99.90;;;;;;5094672;28;20083;-69
2022/08/01 01:19:13;;;;;;;3.75;1.83;;;18.20;99.90;;;;;;5095027;28;20048;-68
2022/08/01 01:22:15;;;;;;;3.95;1.95;;;18.20;99.90;;;;;;5095162;28;20410;-69
2022/08/01 01:25:18;;;;;;;7.03;1.65;;;18.20;99.90;;;;;;5095313;28;20352;-69
2022/08/01 01:27:47;;;;;;;3.03;1.70;;;18.20;99.90;;;;;;5075948;28;20123;-69
2022/08/01 01:30:13;;;;;;;2.88;1.70;;;18.20;99.90;;;;;;5074699;28;20055;-69
2022/08/01 01:32:41;;;;;;;4.13;1.70;;;18.10;99.90;;;;;;5074636;28;20048;-69
2022/08/01 01:35:17;;;;;;;4.05;2.05;;;18.20;99.90;;;;;;5074558;28;20041;-69
2022/08/01 01:37:45;;;;;;;5.57;1.60;;;18.10;99.90;;;;;;5074537;28;20087;-69
2022/08/01 01:40:12;;;;;;;12.52;1.90;;;18.10;99.90;;;;;;5074908;28;20123;-69
2022/08/01 01:42:39;;;;;;;4.40;2.00;;;18.10;99.90;;;;;;5090264;28;20094;-69
2022/08/01 01:45:06;;;;;;;5.10;2.00;;;18.10;99.90;;;;;;5074190;28;20037;-69
2022/08/01 01:47:33;;;;;;;3.58;1.83;;;18.00;99.90;;;;;;5074277;28;20037;-68
2022/08/01 01:50:00;;;;;;;3.85;1.80;;;17.90;99.90;;;;;;5074667;28;20055;-69
2022/08/01 01:52:27;;;;;;;5.35;1.50;;;17.90;99.90;;;;;;5074102;28;20114;-69
2022/08/01 01:54:55;;;;;;;6.40;1.90;;;18.00;99.90;;;;;;5074311;28;20526;-69
2022/08/01 01:57:23;;;;;;;4.03;1.70;;;17.90;99.90;;;;;;5074367;28;20124;-69
2022/08/01 01:59:50;;;;;;;4.93;1.88;;;18.00;99.90;;;;;;5074903;28;20049;-68
2022/08/01 02:02:17;;;;;;;3.90;1.77;;;17.90;99.90;;;;;;5094669;28;20052;-69
2022/08/01 02:04:46;;;;;;;2.80;1.63;;;18.00;99.90;;;;;;5094501;28;20364;-69
2022/08/01 02:07:16;;;;;;;6.80;1.90;;;17.90;99.90;;;;;;5094196;28;20456;-70
2022/08/01 02:09:43;;;;;;;2.53;1.63;;;17.90;99.90;;;;;;5094374;28;20055;-69
2022/08/01 02:12:13;;;;;;;3.40;1.60;;;17.90;99.90;;;;;;5094476;28;20048;-69
2022/08/01 02:14:40;;;;;;;5.43;1.50;;;17.90;99.90;;;;;;5095844;28;20051;-69
2022/08/01 02:17:06;;;;;;;5.00;1.85;;;17.80;99.90;;;;;;5077882;28;20081;-69
2022/08/01 02:19:33;;;;;;;3.03;1.40;;;17.90;99.90;;;;;;5059096;28;20507;-69
2022/08/01 02:22:11;;;;;;;2.00;1.20;;;17.80;99.90;;;;;;5077641;28;21059;-69
2022/08/01 02:24:59;;;;;;;4.38;1.50;;;17.80;99.90;;;;;;5077823;28;20052;-69
2022/08/01 02:27:29;;;;;;;6.40;1.60;;;17.80;99.90;;;;;;5077750;28;20085;-69
2022/08/01 02:30:02;;;;;;;7.28;1.35;;;17.70;99.90;;;;;;5077535;28;20353;-69
2022/08/01 02:32:36;;;;;;;4.53;1.85;;;17.70;99.90;;;;;;5082726;28;20040;-69
2022/08/01 02:35:03;;;;;;;7.13;1.63;;;17.60;99.90;;;;;;5077511;28;20364;-69
2022/08/01 02:37:33;;;;;;;6.28;1.55;;;17.70;99.90;;;;;;5077723;28;20395;-69
2022/08/01 02:40:00;;;;;;;6.70;2.05;;;17.70;99.90;;;;;;5077827;28;20052;-69
2022/08/01 02:42:29;;;;;;;4.75;1.70;;;17.70;99.90;;;;;;5077350;28;20055;-69
2022/08/01 02:44:56;;;;;;;5.55;1.38;;;17.60;99.90;;;;;;5077268;28;20178;-69
2022/08/01 02:47:25;;;;;;;3.35;1.25;;;17.60;99.90;;;;;;5090733;28;20365;-69
2022/08/01 02:49:53;;;;;;;4.03;0.95;;;17.70;99.90;;;;;;5097168;28;20048;-69
2022/08/01 02:52:20;;;;;;;3.22;1.30;;;17.60;99.90;;;;;;5097264;28;20063;-69
2022/08/01 02:54:49;;;;;;;5.90;1.77;;;17.60;99.90;;;;;;5097550;28;20101;-69
2022/08/01 02:57:17;;;;;;;4.00;1.40;;;17.60;99.90;;;;;;5097189;28;20077;-69
2022/08/01 02:59:45;;;;;;;5.35;1.52;;;17.60;99.90;;;;;;5097230;28;20040;-68
2022/08/01 03:02:11;;;;;;;7.72;1.48;;;17.60;99.90;;;;;;5097226;28;20365;-69
2022/08/01 03:04:38;;;;;;;4.38;1.25;;;17.50;99.90;;;;;;5079140;28;20049;-69
2022/08/01 03:07:06;;;;;;;4.75;1.42;;;17.50;99.90;;;;;;5076949;28;20055;-69
2022/08/01 03:09:35;;;;;;;5.82;1.63;;;17.60;99.90;;;;;;5077024;28;20048;-69
2022/08/01 03:12:03;;;;;;;7.00;2.33;;;17.60;99.90;;;;;;5076749;28;20048;-69
2022/08/01 03:14:32;;;;;;;6.43;1.65;;;17.50;99.90;;;;;;5076683;28;20059;-69
2022/08/01 03:17:00;;;;;;;5.07;1.60;;;17.50;99.90;;;;;;5077070;28;20105;-69
2022/08/01 03:19:27;;;;;;;7.32;1.75;;;17.40;99.90;;;;;;5094650;28;20444;-69
2022/08/01 03:21:54;;;;;;;5.55;2.00;;;17.50;99.90;;;;;;5096783;28;20043;-69
2022/08/01 03:24:22;;;;;;;6.85;1.90;;;17.40;99.90;;;;;;5097041;28;20044;-69
2022/08/01 03:26:49;;;;;;;9.07;2.40;;;17.40;99.90;;;;;;5096748;28;20048;-69
2022/08/01 03:29:22;;;;;;;5.35;2.30;;;17.40;99.90;;;;;;5097106;28;20444;-69
2022/08/01 03:31:49;;;;;;;5.25;1.60;;;17.40;99.90;;;;;;5096982;28;20098;-69
2022/08/01 03:34:15;;;;;;;7.22;2.53;;;17.40;99.90;;;;;;5077565;28;20044;-70
2022/08/01 03:36:53;;;;;;;6.45;1.95;;;17.40;99.90;;;;;;5076260;28;20044;-69
2022/08/01 03:39:21;;;;;;;8.55;2.08;;;17.40;99.90;;;;;;5076301;28;20048;-68
2022/08/01 03:41:54;;;;;;;9.88;2.60;;;17.50;99.90;;;;;;5076206;28;20037;-68
2022/08/01 03:44:25;;;;;;;6.70;2.30;;;17.40;99.90;;;;;;5076424;28;20048;-69
2022/08/01 03:46:57;;;;;;;8.13;2.22;;;17.30;99.90;;;;;;5076710;28;20040;-69
2022/08/01 03:49:29;;;;;;;12.37;1.97;;;17.30;99.90;;;;;;5096669;28;20047;-69
2022/08/01 03:51:56;;;;;;;9.10;2.08;;;17.20;99.90;;;;;;5096512;28;20391;-69
2022/08/01 03:54:26;;;;;;;5.53;1.75;;;17.10;99.90;;;;;;5096143;28;20055;-68
2022/08/01 03:56:52;;;;;;;7.55;2.45;;;17.00;99.90;;;;;;5096403;28;20402;-69
2022/08/01 03:59:20;;;;;;;14.80;2.00;;;17.00;99.90;;;;;;5097028;28;20043;-69
2022/08/01 04:01:47;;;;;;;5.80;2.15;;;17.00;99.90;;;;;;5092925;28;20414;-69
2022/08/01 04:04:13;;;;;;;9.38;2.63;;;17.00;99.90;;;;;;5078418;28;20472;-69
2022/08/01 04:06:45;;;;;;;4.30;1.92;;;16.90;99.90;;;;;;5096004;28;20087;-68
2022/08/01 04:09:11;;;;;;;7.50;1.80;;;16.90;99.90;;;;;;5085670;28;20448;-69
2022/08/01 04:11:37;;;;;;;7.13;2.00;;;16.90;99.90;;;;;;5075793;28;20040;-69
2022/08/01 04:14:03;;;;;;;5.45;1.73;;;16.90;99.90;;;;;;5075653;28;20446;-68
2022/08/01 04:16:29;;;;;;;12.52;2.35;;;17.00;99.90;;;;;;5075362;28;20052;-69
2022/08/01 04:18:55;;;;;;;9.32;2.42;;;17.00;99.90;;;;;;5076056;28;20044;-69
2022/08/01 04:21:27;;;;;;;7.18;2.35;;;17.00;99.90;;;;;;5075791;28;20083;-69
2022/08/01 04:23:53;;;;;;;11.02;3.00;;;17.00;99.90;;;;;;5075369;28;20135;-69
2022/08/01 04:26:21;;;;;;;6.57;1.85;;;17.00;99.90;;;;;;5075476;28;20451;-69
2022/08/01 04:28:49;;;;;;;8.77;2.05;;;17.00;99.90;;;;;;5075489;28;20109;-69
2022/08/01 04:31:17;;;;;;;10.90;2.08;;;17.00;99.90;;;;;;5075280;28;20058;-70
2022/08/01 04:33:47;;;;;;;10.50;2.80;;;17.00;99.90;;;;;;5075526;28;20044;-69
2022/08/01 04:36:14;;;;;;;9.35;1.85;;;17.00;99.90;;;;;;5074523;28;20058;-69
2022/08/01 04:38:45;;;;;;;10.18;1.48;;;17.00;99.90;;;;;;5075388;28;20102;-69
2022/08/01 04:41:12;;;;;;;9.65;2.53;;;16.90;99.90;;;;;;5090811;28;20115;-69
2022/08/01 04:43:38;;;;;;;11.05;2.40;;;16.90;99.90;;;;;;5095833;28;20473;-69
2022/08/01 04:46:06;;;;;;;14.30;3.10;;;16.90;99.90;;;;;;5095327;28;20055;-69
2022/08/01 04:48:34;;;;;;;8.93;1.80;;;17.00;99.90;;;;;;5095207;28;20105;-69
2022/08/01 04:51:00;;;;;;;12.85;2.75;;;16.90;99.90;;;;;;5094958;28;20048;-69
2022/08/01 04:53:26;;;;;;;7.80;2.42;;;16.80;99.90;;;;;;5094035;28;20375;-69
2022/08/01 04:55:53;;;;;;;14.73;2.53;;;16.80;99.90;;;;;;5087956;28;20147;-69
2022/08/01 04:58:18;;;;;;;9.10;2.40;;;16.80;99.90;;;;;;5075255;28;20134;-69
2022/08/01 05:00:44;;;;;;;9.82;2.90;;;16.90;99.90;;;;;;5075330;28;20468;-69
2022/08/01 05:03:10;;;;;;;16.35;2.70;;;16.80;99.90;;;;;;5075018;28;20040;-69
2022/08/01 05:05:35;;;;;;;10.93;3.13;;;16.80;99.90;;;;;;5074962;28;20101;-69
2022/08/01 05:08:01;;;;;;;10.35;2.88;;;16.80;99.90;;;;;;5074894;28;20445;-69
2022/08/01 05:10:27;;;;;;;10.82;1.95;;;16.80;99.90;;;;;;5079778;28;20068;-69
2022/08/01 05:12:53;;;;;;;12.32;2.72;;;16.80;99.90;;;;;;5094437;28;20131;-69
2022/08/01 05:15:19;;;;;;;14.55;3.03;;;16.80;99.90;;;;;;5095361;28;20048;-69
2022/08/01 05:17:44;;;;;;;11.52;2.17;;;16.90;99.90;;;;;;5095180;28;20357;-69
2022/08/01 05:20:11;;;;;;;9.18;2.38;;;17.00;99.90;;;;;;5094959;28;20048;-69
2022/08/01 05:22:37;;;;;;;7.82;2.50;;;17.00;99.90;;;;;;5095245;28;20044;-69
2022/08/01 05:25:04;;;;;;;7.63;2.03;;;17.00;99.90;;;;;;5094864;28;20104;-69
2022/08/01 05:27:31;;;;;;;6.85;2.08;;;17.00;99.90;;;;;;5095046;28;20040;-69
2022/08/01 05:29:56;;;;;;;10.27;2.40;;;17.10;99.90;;;;;;5075200;28;20338;-69
2022/08/01 05:32:22;;;;;;;12.18;2.85;;;17.00;99.90;;;;;;5075067;28;20044;-69
2022/08/01 05:34:47;;;;;;;11.95;2.42;;;17.00;99.90;;;;;;5074643;28;20037;-69
2022/08/01 05:37:13;;;;;;;13.95;2.45;;;17.00;99.90;;;;;;5074767;28;20457;-69
2022/08/01 05:39:39;;;;;;;14.73;2.10;;;17.10;99.90;;;;;;5074082;28;20384;-69
2022/08/01 05:42:04;;;;;;;13.00;2.60;;;17.10;99.90;;;;;;5074933;28;20131;-69
2022/08/01 05:44:30;;;;;;;9.52;2.47;;;17.10;99.90;;;;;;5092027;28;20055;-69
2022/08/01 05:46:56;;;;;;;9.77;2.65;;;17.20;99.90;;;;;;5095675;28;20468;-70
2022/08/01 05:49:21;;;;;;;9.38;2.63;;;17.20;99.90;;;;;;5099083;28;20054;-70
2022/08/01 05:51:47;;;;;;;17.60;2.50;;;17.30;99.90;;;;;;5098691;28;20097;-69
2022/08/01 05:54:12;;;;;;;9.52;2.60;;;17.20;99.90;;;;;;5098818;28;20039;-68
2022/08/01 05:56:38;;;;;;;14.25;2.22;;;17.30;99.90;;;;;;5098523;28;20113;-70
2022/08/01 05:59:04;;;;;;;12.75;3.08;;;17.30;99.90;;;;;;5081615;28;20465;-69
2022/08/01 06:01:29;;;;;;;11.70;2.15;;;17.20;99.90;;;;;;5078504;28;20045;-69
2022/08/01 06:03:55;;;;;;;11.10;2.65;;;17.30;99.90;;;;;;5078260;28;20055;-69
2022/08/01 06:06:21;;;;;;;12.25;2.42;;;17.20;99.90;;;;;;5078289;28;20072;-70
2022/08/01 06:08:47;;;;;;;15.27;2.58;;;17.30;99.90;;;;;;5078276;28;20033;-70
2022/08/01 06:11:13;;;;;;;14.25;2.83;;;17.30;99.90;;;;;;5077705;28;20033;-69
2022/08/01 06:13:39;;;;;;;11.55;2.92;;;17.20;99.90;;;;;;5092599;28;20112;-69
2022/08/01 06:16:04;;;;;;;12.45;2.80;;;17.40;99.90;;;;;;5098470;28;20063;-69
2022/08/01 06:18:30;;;;;;;12.27;3.30;;;17.30;99.90;;;;;;5098089;28;20360;-69
2022/08/01 06:20:56;;;;;;;15.43;2.63;;;17.30;99.90;;;;;;5099255;28;20048;-69
2022/08/01 06:23:21;;;;;;;17.17;3.95;;;17.30;99.90;;;;;;5098082;28;20043;-69
2022/08/01 06:25:47;;;;;;;16.02;3.72;;;17.30;99.90;;;;;;5098064;28;20052;-69
2022/08/01 06:28:13;;;;;;;12.13;3.10;;;17.40;99.90;;;;;;5084408;28;20055;-69
2022/08/01 06:30:38;;;;;;;16.02;3.15;;;17.40;99.90;;;;;;5077437;28;20477;-68
2022/08/01 06:33:04;;;;;;;12.52;3.17;;;17.40;99.90;;;;;;5077469;28;20052;-68
2022/08/01 06:35:30;;;;;;;12.02;2.70;;;17.40;99.90;;;;;;5077463;28;20045;-69
2022/08/01 06:37:57;;;;;;;10.02;3.13;;;17.50;99.90;;;;;;5077622;28;20048;-69
2022/08/01 06:40:23;;;;;;;9.98;2.50;;;17.40;99.90;;;;;;5077643;28;20464;-69
2022/08/01 06:42:48;;;;;;;12.38;2.97;;;17.40;99.90;;;;;;5089506;28;20122;-69
2022/08/01 06:45:15;;;;;;;16.15;2.85;;;17.40;99.90;;;;;;5097692;28;20123;-70
2022/08/01 06:47:42;;;;;;;15.02;3.08;;;17.50;99.90;;;;;;5097802;28;20051;-70
2022/08/01 06:50:08;;;;;;;9.18;2.40;;;17.50;99.90;;;;;;5097552;28;20048;-69
2022/08/01 06:52:34;;;;;;;12.30;2.90;;;17.60;99.90;;;;;;5097239;28;20052;-70
2022/08/01 06:55:00;;;;;;;9.60;2.67;;;17.50;99.90;;;;;;5097631;28;20126;-70
2022/08/01 06:57:26;;;;;;;16.52;2.92;;;17.50;99.90;;;;;;5086268;28;20114;-69
2022/08/01 06:59:52;;;;;;;15.55;3.03;;;17.70;99.90;;;;;;5076735;28;20045;-70
2022/08/01 07:02:18;;;;;;;12.50;2.97;;;17.70;99.90;;;;;;5077050;28;20040;-70
2022/08/01 07:04:43;;;;;;;23.27;2.80;;;17.70;99.90;;;;;;5077414;28;20052;-70
2022/08/01 07:07:09;;;;;;;14.43;2.63;;;17.70;99.90;;;;;;5077784;28;20052;-70
2022/08/01 07:09:34;;;;;;;6.00;1.83;;;17.70;99.90;;;;;;5077141;28;20492;-69
2022/08/01 07:12:00;;;;;;;15.38;3.83;;;17.70;99.90;;;;;;5079582;28;20084;-69
2022/08/01 07:14:26;;;;;;;17.33;3.17;;;17.70;99.90;;;;;;5076952;28;20041;-70
2022/08/01 07:16:51;;;;;;;22.02;3.92;;;17.80;99.90;;;;;;5076805;28;20041;-70
2022/08/01 07:19:17;;;;;;;13.38;2.83;;;17.80;99.90;;;;;;5076992;28;20365;-70
2022/08/01 07:21:43;;;;;;;12.32;2.90;;;17.80;99.90;;;;;;5076846;28;20500;-69
2022/08/01 07:24:12;;;;;;;9.52;2.83;;;17.90;99.90;;;;;;5076723;28;20337;-68
2022/08/01 07:26:38;;;;;;;8.82;2.25;;;18.10;99.90;;;;;;5076905;28;20051;-69
2022/08/01 07:29:04;;;;;;;7.90;1.90;;;18.10;99.90;;;;;;5084894;28;20052;-69
2022/08/01 07:31:30;;;;;;;15.38;3.10;;;18.20;99.90;;;;;;5096517;28;20048;-69
2022/08/01 07:33:56;;;;;;;7.30;2.30;;;18.30;99.90;;;;;;5096800;28;20340;-69
2022/08/01 07:36:21;;;;;;;7.25;2.50;;;18.50;99.90;;;;;;5096509;28;20374;-69
2022/08/01 07:38:48;;;;;;;6.53;1.70;;;18.50;99.90;;;;;;5096576;28;20048;-69
2022/08/01 07:41:14;;;;;;;8.30;2.22;;;18.70;99.90;;;;;;5087759;28;20123;-70
2022/08/01 07:43:40;;;;;;;11.23;2.65;;;18.90;99.90;;;;;;5077498;28;20055;-69
2022/08/01 07:46:06;;;;;;;9.60;2.20;;;19.20;99.90;;;;;;5096513;28;20047;-70
2022/08/01 07:48:32;;;;;;;11.73;2.40;;;19.30;99.90;;;;;;5096520;28;20055;-69
2022/08/01 07:50:58;;;;;;;10.07;3.15;;;19.30;99.90;;;;;;5095231;28;20376;-69
2022/08/01 07:53:23;;;;;;;9.65;2.40;;;19.40;99.90;;;;;;5096428;28;20356;-70
2022/08/01 07:55:49;;;;;;;13.38;2.55;;;19.60;99.90;;;;;;5096278;28;20062;-69
2022/08/01 07:58:16;;;;;;;14.25;2.58;;;19.90;99.90;;;;;;5095975;28;20402;-70
2022/08/01 08:00:42;;;;;;;7.38;2.08;;;20.30;99.90;;;;;;5075384;28;20049;-70
2022/08/01 08:03:08;;;;;;;7.97;1.90;;;21.00;99.90;;;;;;5076052;28;20126;-69
2022/08/01 08:05:35;;;;;;;8.05;1.98;;;21.20;99.90;;;;;;5076102;28;20056;-70
2022/08/01 08:08:05;;;;;;;10.77;2.28;;;21.00;99.90;;;;;;5076005;28;20422;-69
2022/08/01 08:10:31;;;;;;;12.27;2.28;;;20.50;99.90;;;;;;5074839;28;20113;-70
2022/08/01 08:12:56;;;;;;;7.55;2.53;;;20.60;99.90;;;;;;5075573;28;20442;-70
2022/08/01 08:15:22;;;;;;;11.15;1.85;;;20.90;99.90;;;;;;5078001;28;20044;-70
2022/08/01 08:17:47;;;;;;;12.88;2.67;;;21.50;99.90;;;;;;5096189;28;20100;-70
2022/08/01 08:20:13;;;;;;;11.25;2.53;;;21.70;99.90;;;;;;5096074;28;20043;-70
2022/08/01 08:22:39;;;;;;;7.75;1.98;;;21.50;99.90;;;;;;5095263;28;20052;-70
2022/08/01 08:25:05;;;;;;;10.30;2.53;;;21.30;99.90;;;;;;5095561;28;20455;-69
2022/08/01 08:27:31;;;;;;;6.45;1.30;;;21.50;99.90;;;;;;5095606;28;20046;-70
2022/08/01 08:29:56;;;;;;;5.72;1.73;;;21.70;99.90;;;;;;5093620;28;20044;-69
2022/08/01 08:32:22;;;;;;;11.40;2.80;;;22.20;99.90;;;;;;5075690;28;20040;-70
2022/08/01 08:34:48;;;;;;;8.20;1.50;;;22.10;99.90;;;;;;5074721;28;20056;-70
2022/08/01 08:37:13;;;;;;;7.35;1.90;;;21.80;99.90;;;;;;5075278;28;20040;-70
2022/08/01 08:39:39;;;;;;;4.95;1.33;;;21.40;99.90;;;;;;5075728;28;20067;-70
2022/08/01 08:42:09;;;;;;;8.05;2.15;;;21.10;99.90;;;;;;5075574;28;20102;-70
2022/08/01 08:44:35;;;;;;;7.07;1.80;;;21.00;99.90;;;;;;5075754;28;20041;-69
2022/08/01 08:47:04;;;;;;;14.07;2.17;;;20.60;99.90;;;;;;5096059;28;20127;-70
2022/08/01 08:49:31;;;;;;;11.30;2.03;;;20.50;99.90;;;;;;5095199;28;20448;-70
2022/08/01 08:51:59;;;;;;;4.40;1.42;;;20.40;99.90;;;;;;5093875;28;20135;-70
2022/08/01 08:54:26;;;;;;;6.57;1.85;;;20.50;99.90;;;;;;5095136;28;20067;-70
2022/08/01 08:56:53;;;;;;;10.23;1.80;;;20.70;99.90;;;;;;5095470;28;20040;-69
2022/08/01 08:59:19;;;;;;;6.93;2.25;;;21.10;99.90;;;;;;5094659;28;20103;-69
2022/08/01 09:01:45;;;;;;;9.40;2.25;;;21.80;99.90;;;;;;5075169;28;20048;-69
2022/08/01 09:04:11;;;;;;;5.95;1.25;;;22.70;99.90;;;;;;5074804;28;20106;-70
2022/08/01 09:06:38;;;;;;;4.72;1.60;;;22.90;99.90;;;;;;5074839;28;20052;-70
2022/08/01 09:09:04;;;;;;;6.10;1.67;;;23.20;99.90;;;;;;5074384;28;20369;-70
2022/08/01 09:11:30;;;;;;;8.05;1.77;;;23.30;99.90;;;;;;5074729;28;20462;-69
2022/08/01 09:14:09;;;;;;;9.27;1.80;;;23.10;99.90;;;;;;5074976;28;20051;-71
2022/08/01 09:16:37;;;;;;;6.82;1.63;;;22.60;99.90;;;;;;5075131;28;20040;-70
2022/08/01 09:19:18;;;;;;;5.38;1.17;;;22.30;99.90;;;;;;5075918;28;20056;-70
2022/08/01 09:22:01;;;;;;;9.13;1.50;;;22.00;99.90;;;;;;5095873;28;20054;-69
2022/08/01 09:24:28;;;;;;;5.90;1.65;;;22.10;99.90;;;;;;5099156;28;20048;-70
2022/08/01 09:26:54;;;;;;;8.35;1.25;;;22.00;99.90;;;;;;5099459;28;20048;-70
2022/08/01 09:29:27;;;;;;;6.53;1.60;;;21.80;99.90;;;;;;5099114;28;20036;-70
2022/08/01 09:31:53;;;;;;;4.93;1.83;;;21.50;99.90;;;;;;5099480;28;20043;-70
2022/08/01 09:34:32;;;;;;;6.00;1.40;;;21.60;99.90;;;;;;5093462;28;20393;-70
2022/08/01 09:37:00;;;;;;;5.72;1.48;;;21.60;99.90;;;;;;5078725;28;20066;-69
2022/08/01 09:39:36;;;;;;;11.30;1.40;;;21.40;99.90;;;;;;5078927;28;20049;-70
2022/08/01 09:42:18;;;;;;;8.30;1.33;;;21.00;99.90;;;;;;5078462;28;20056;-70
2022/08/01 09:44:44;;;;;;;5.22;1.52;;;21.20;99.90;;;;;;5079120;28;20040;-70
2022/08/01 09:47:12;;;;;;;7.20;1.27;;;21.30;99.90;;;;;;5078792;28;20136;-70
2022/08/01 09:49:39;;;;;;;9.57;2.17;;;21.80;99.90;;;;;;5088619;28;20036;-70
2022/08/01 09:52:16;;;;;;;7.10;1.40;;;22.00;99.90;;;;;;5098202;28;20052;-69
2022/08/01 09:54:44;;;;;;;8.48;1.40;;;21.90;99.90;;;;;;5098546;28;20066;-70
2022/08/01 09:57:14;;;;;;;4.97;1.42;;;21.70;99.90;;;;;;5098496;28;20048;-69
2022/08/01 09:59:44;;;;;;;6.47;1.40;;;21.60;99.90;;;;;;5098600;28;20040;-69
2022/08/01 10:02:15;;;;;;;6.30;1.40;;;21.60;99.80;;;;;;5098883;28;20044;-69
2022/08/01 10:04:48;;;;;;;4.85;1.55;;;21.50;99.90;;;;;;5098535;28;20044;-70
2022/08/01 10:07:15;;;;;;;8.13;1.48;;;21.90;99.90;;;;;;5080359;28;20048;-70
2022/08/01 10:09:41;;;;;;;7.38;1.15;;;21.90;99.90;;;;;;5078098;28;20040;-69
2022/08/01 10:12:09;;;;;;;6.35;1.42;;;21.80;99.90;;;;;;5078155;28;20044;-69
2022/08/01 10:14:37;;;;;;;6.20;1.20;;;21.90;99.90;;;;;;5078262;28;20045;-70
2022/08/01 10:17:05;;;;;;;4.97;1.30;;;22.20;98.50;;;;;;5078021;28;20048;-70
2022/08/01 10:19:32;;;;;;;4.88;1.20;;;22.30;99.90;;;;;;5077958;28;20469;-70
2022/08/01 10:21:58;;;;;;;5.32;1.52;;;22.40;99.90;;;;;;5094659;28;20036;-70
2022/08/01 10:24:26;;;;;;;4.63;1.50;;;22.30;99.50;;;;;;5097928;28;20044;-71
2022/08/01 10:26:59;;;;;;;5.03;1.45;;;22.10;99.90;;;;;;5098294;28;20333;-69
2022/08/01 10:29:26;;;;;;;5.57;1.40;;;21.90;99.60;;;;;;5098214;28;20052;-70
2022/08/01 10:31:52;;;;;;;8.32;1.20;;;21.40;98.80;;;;;;5098584;28;20059;-70
2022/08/01 10:34:20;;;;;;;7.80;2.05;;;21.10;99.90;;;;;;5097024;28;20058;-70
2022/08/01 10:36:46;;;;;;;5.10;1.15;;;21.20;99.90;;;;;;5079184;28;20126;-68
2022/08/01 10:39:12;;;;;;;5.13;1.17;;;21.50;99.90;;;;;;5077235;28;20041;-70
2022/08/01 10:41:39;;;;;;;9.18;1.33;;;21.90;99.90;;;;;;5077344;28;20102;-69
2022/08/01 10:44:09;;;;;;;9.43;1.80;;;22.20;99.90;;;;;;5077573;28;20074;-69
2022/08/01 10:46:38;;;;;;;6.78;1.58;;;22.40;99.00;;;;;;5076427;28;20360;-71
2022/08/01 10:49:06;;;;;;;3.92;1.33;;;21.80;97.70;;;;;;5078198;28;20445;-71
2022/08/01 10:51:38;;;;;;;6.38;1.70;;;21.50;98.80;;;;;;5077235;28;20091;-69
2022/08/01 10:54:06;;;;;;;6.78;1.33;;;21.60;99.90;;;;;;5077195;28;20048;-70
2022/08/01 10:56:59;;;;;;;13.95;1.30;;;21.60;98.90;;;;;;5076643;28;20071;-70
2022/08/01 10:59:29;;;;;;;6.43;1.42;;;21.60;98.90;;;;;;5075104;28;20052;-69
2022/08/01 11:02:04;;;;;;;4.60;1.13;;;21.60;99.90;;;;;;5077542;28;20368;-70
2022/08/01 11:04:40;;;;;;;6.57;1.05;;;21.60;99.90;;;;;;5076956;28;20471;-69
2022/08/01 11:07:07;;;;;;;7.95;1.27;;;21.50;98.60;;;;;;5077052;28;20040;-70
2022/08/01 11:09:42;;;;;;;3.28;1.00;;;21.60;99.60;;;;;;5076637;28;20044;-70
2022/08/01 11:12:10;;;;;;;6.53;1.60;;;22.00;99.90;;;;;;5076756;28;20047;-69
2022/08/01 11:15:15;;;;;;;3.58;1.10;;;22.10;99.90;;;;;;5076348;28;20461;-69
2022/08/01 11:17:49;;;;;;;5.05;1.10;;;22.20;98.20;;;;;;5076837;28;20465;-69
2022/08/01 11:20:33;;;;;;;4.90;1.02;;;21.90;98.00;;;;;;5076428;28;20461;-71
2022/08/01 11:23:03;;;;;;;7.43;1.60;;;21.80;98.60;;;;;;5077114;28;20040;-70
2022/08/01 11:25:48;;;;;;;7.32;1.13;;;21.50;97.80;;;;;;5076307;28;20118;-71
2022/08/01 11:28:14;;;;;;;5.47;1.27;;;21.50;98.90;;;;;;5076567;28;20049;-69
2022/08/01 11:30:43;;;;;;;2.75;1.10;;;21.40;99.00;;;;;;5076466;28;20119;-70
2022/08/01 11:33:10;;;;;;;2.85;0.85;;;21.80;99.60;;;;;;5076470;28;20074;-70
2022/08/01 11:35:36;;;;;;;6.88;1.38;;;22.10;97.30;;;;;;5076100;28;20084;-69
2022/08/01 11:38:27;;;;;;;6.22;1.00;;;22.00;97.10;;;;;;5076588;28;20044;-71
2022/08/01 11:41:25;;;;;;;4.97;1.10;;;22.20;97.80;;;;;;5075839;28;20376;-70
2022/08/01 11:44:00;;;;;;;4.90;0.80;;;22.20;97.10;;;;;;5076257;28;20048;-71
2022/08/01 11:46:44;;;;;;;8.43;1.38;;;22.10;97.70;;;;;;5076258;28;20044;-69
2022/08/01 11:49:33;;;;;;;5.15;1.65;;;22.00;97.50;;;;;;5076139;28;20036;-70
2022/08/01 11:52:04;;;;;;;3.72;0.90;;;22.00;97.10;;;;;;5076078;28;20044;-70
2022/08/01 11:54:33;;;;;;;4.28;0.90;;;22.00;95.80;;;;;;5076244;28;20080;-70
2022/08/01 11:57:02;;;;;;;4.55;1.40;;;22.00;97.70;;;;;;5076304;28;20482;-69
2022/08/01 11:59:27;;;;;;;4.43;1.05;;;22.20;97.10;;;;;;5075881;28;20129;-70
2022/08/01 12:01:53;;;;;;;7.13;1.25;;;22.10;97.60;;;;;;5075856;28;20477;-70
2022/08/01 12:04:19;;;;;;;4.78;1.20;;;22.00;96.90;;;;;;5075640;28;20049;-70
2022/08/01 12:06:45;;;;;;;2.60;0.82;;;22.00;97.20;;;;;;5076002;28;20465;-69
2022/08/01 12:09:21;;;;;;;7.10;1.50;;;22.10;98.10;;;;;;5075959;28;20048;-70
2022/08/01 12:11:47;;;;;;;14.18;1.55;;;22.00;96.60;;;;;;5075708;28;20330;-70
2022/08/01 12:14:21;;;;;;;4.28;1.00;;;22.00;96.50;;;;;;5075855;28;20052;-70
2022/08/01 12:16:52;;;;;;;5.78;0.98;;;22.30;96.40;;;;;;5089580;28;20044;-71
2022/08/01 12:19:22;;;;;;;4.47;1.13;;;22.20;96.30;;;;;;5095957;28;20123;-71
2022/08/01 12:22:12;;;;;;;5.20;1.25;;;22.10;97.10;;;;;;5095890;28;20460;-71
2022/08/01 12:24:39;;;;;;;4.13;1.40;;;21.80;95.60;;;;;;5087730;28;20052;-70
2022/08/01 12:27:06;;;;;;;6.40;1.00;;;21.70;96.00;;;;;;5096115;28;20048;-71
2022/08/01 12:29:43;;;;;;;4.22;1.45;;;21.70;95.80;;;;;;5096083;28;20460;-70
2022/08/01 12:32:27;;;;;;;4.95;1.15;;;21.70;96.20;;;;;;5076011;28;20048;-70
2022/08/01 12:34:53;;;;;;;;;;;21.80;96.10;;;;;;5075653;28;20141;-70
2022/08/01 12:37:19;;;;;;;2.90;1.10;;;22.10;96.00;;;;;;5075381;28;19923;-71
2022/08/01 12:39:46;;;;;;;7.47;1.70;;;22.20;95.70;;;;;;5075724;28;20044;-70
2022/08/01 12:42:12;;;;;;;4.95;1.55;;;22.20;96.30;;;;;;5075187;28;20033;-70
2022/08/01 12:44:39;;;;;;;7.07;1.23;;;22.40;96.20;;;;;;5075627;28;20150;-71
2022/08/01 12:47:06;;;;;;;4.53;0.90;;;22.50;95.00;;;;;;5096270;28;20045;-71
2022/08/01 12:49:36;;;;;;;6.55;1.17;;;22.30;94.30;;;;;;5095978;28;20122;-69
2022/08/01 12:52:03;;;;;;;4.57;0.82;;;22.00;95.10;;;;;;5095093;28;20122;-71